| Servicio Meteorologico Nacional.

Pronóstico antártico

Pronóstico antártico

TAF Marambio
 

FTAA SAWB 042300
TAF SAWB 042300Z 0500/0524 32025KT CAVOK TXM02/0500Z TNM05/0512Z
BECMG 0505/0507 36010KT 4000 BR SCT005 BKN050
BECMG 0509/0511 0500 -SN FZFG BKN002 OVC050
BECMG 0514/0516 02015KT 0100 SN FZFG OVC002
TEMPO 0517/0523 02020KT=